Time;durP1;ratioP1;P1;durP2;ratioP2;P2;SDS_P1;SDS_P2;PMS_P1;PMS_P2;Temp;Humidity;BMP_temperature;BMP_pressure;BME280_temperature;BME280_humidity;BME280_pressure;Samples;Min_cycle;Max_cycle;Signal;HPM_P1;HPM_P2
2023/03/22 00:02:13;;;;;;;6.85;3.40;;;;;;;10.18;82.23;99857.59;6323216;28;20094;-74
2023/03/22 00:05:17;;;;;;;6.22;3.17;;;;;;;10.23;81.90;99856.38;6324349;28;20040;-70
2023/03/22 00:08:18;;;;;;;6.25;3.28;;;;;;;10.13;82.69;99844.88;6324053;28;20051;-74
2023/03/22 00:11:21;;;;;;;10.25;3.85;;;;;;;10.11;83.32;99853.69;6323565;28;20036;-71
2023/03/22 00:14:22;;;;;;;4.22;3.45;;;;;;;9.98;83.76;99840.59;6322852;28;20035;-74
2023/03/22 00:17:24;;;;;;;3.97;2.78;;;;;;;9.93;84.60;99842.66;6323257;28;20507;-74
2023/03/22 00:20:29;;;;;;;6.18;3.22;;;;;;;9.79;85.04;99838.28;6322868;28;20046;-70
2023/03/22 00:23:30;;;;;;;6.60;3.78;;;;;;;9.62;86.21;99834.09;6322377;28;20500;-70
2023/03/22 00:26:30;;;;;;;6.32;3.55;;;;;;;9.80;84.94;99834.72;6322518;28;20062;-70
2023/03/22 00:29:34;;;;;;;8.13;3.33;;;;;;;9.70;85.75;99837.09;6322167;28;20040;-71
2023/03/22 00:32:41;;;;;;;6.25;3.40;;;;;;;9.63;85.52;99833.97;6322355;28;20397;-75
2023/03/22 00:35:50;;;;;;;8.35;3.15;;;;;;;9.50;87.17;99830.47;6323986;28;20116;-70
2023/03/22 00:38:51;;;;;;;6.18;4.03;;;;;;;9.37;88.00;99821.69;6322744;28;20054;-74
2023/03/22 00:41:52;;;;;;;6.70;4.15;;;;;;;9.24;88.55;99819.00;6322048;28;20044;-70
2023/03/22 00:44:52;;;;;;;5.85;3.70;;;;;;;9.24;88.92;99829.41;6323673;28;20515;-74
2023/03/22 00:47:53;;;;;;;5.03;3.67;;;;;;;9.19;88.73;99821.03;6322114;28;20060;-74
2023/03/22 00:50:54;;;;;;;9.13;3.70;;;;;;;9.12;88.94;99815.38;6322123;28;20484;-70
2023/03/22 00:53:55;;;;;;;5.40;3.20;;;;;;;9.14;88.73;99817.84;6323760;28;20044;-74
2023/03/22 00:56:56;;;;;;;4.57;3.40;;;;;;;9.04;89.61;99814.97;6322141;28;20131;-70
2023/03/22 00:59:57;;;;;;;10.48;4.10;;;;;;;9.00;89.58;99811.69;6323488;28;20067;-70
2023/03/22 01:03:02;;;;;;;12.82;5.20;;;;;;;9.00;89.93;99816.91;6322185;28;20047;-70
2023/03/22 01:06:04;;;;;;;8.98;4.22;;;;;;;8.97;89.44;99814.47;6322539;28;20044;-70
2023/03/22 01:09:05;;;;;;;8.20;4.50;;;;;;;8.74;91.03;99805.41;6321662;28;20047;-70
2023/03/22 01:12:06;;;;;;;4.93;3.50;;;;;;;8.91;89.88;99809.63;6321379;28;20381;-70
2023/03/22 01:15:07;;;;;;;6.10;3.58;;;;;;;8.88;89.61;99802.84;6321264;28;20040;-74
2023/03/22 01:18:10;;;;;;;6.63;3.50;;;;;;;8.78;89.62;99808.66;6322803;28;20041;-74
2023/03/22 01:21:13;;;;;;;7.97;4.57;;;;;;;8.76;89.79;99806.16;6321550;28;20047;-74
2023/03/22 01:24:16;;;;;;;9.02;3.90;;;;;;;8.72;89.60;99804.66;6321461;28;20040;-74
2023/03/22 01:27:17;;;;;;;5.57;3.28;;;;;;;8.77;88.89;99806.97;6322502;28;20484;-74
2023/03/22 01:30:18;;;;;;;6.63;4.00;;;;;;;8.66;89.24;99802.41;6321757;28;20040;-74
2023/03/22 01:33:19;;;;;;;9.10;3.83;;;;;;;8.61;89.00;99801.84;6322489;28;20040;-74
2023/03/22 01:36:20;;;;;;;6.53;3.97;;;;;;;8.62;89.02;99800.91;6320765;28;20047;-70
2023/03/22 01:39:21;;;;;;;11.00;3.67;;;;;;;8.46;89.85;99795.72;6322359;28;20416;-74
2023/03/22 01:42:23;;;;;;;6.03;3.35;;;;;;;8.58;88.98;99795.03;6322558;28;20040;-74
2023/03/22 01:45:41;;;;;;;9.27;4.30;;;;;;;8.40;90.13;99804.69;6322001;28;20118;-70
2023/03/22 01:48:45;;;;;;;8.57;4.07;;;;;;;8.41;89.47;99798.56;6320884;28;20055;-74
2023/03/22 01:51:50;;;;;;;6.30;3.75;;;;;;;8.28;90.89;99797.56;6322053;28;20040;-70
2023/03/22 01:54:53;;;;;;;6.30;3.60;;;;;;;8.29;91.29;99799.22;6321561;28;20060;-70
2023/03/22 01:57:57;;;;;;;7.20;3.65;;;;;;;8.21;91.65;99798.81;6321989;28;20044;-74
2023/03/22 02:00:58;;;;;;;7.20;3.85;;;;;;;8.21;91.94;99807.44;6321732;28;20044;-70
2023/03/22 02:04:05;;;;;;;9.55;4.50;;;;;;;8.05;93.96;99804.88;6320292;28;20040;-71
2023/03/22 02:07:14;;;;;;;7.43;4.75;;;;;;;8.13;93.08;99795.81;6321264;28;20043;-71
2023/03/22 02:10:18;;;;;;;4.70;3.33;;;;;;;8.16;92.40;99795.66;6321838;28;20487;-74
2023/03/22 02:13:33;;;;;;;14.90;4.32;;;;;;;8.10;92.83;99799.41;6321583;28;20036;-70
2023/03/22 02:16:48;;;;;;;5.50;3.80;;;;;;;8.02;93.03;99799.81;6321565;28;20048;-74
2023/03/22 02:20:03;;;;;;;7.45;4.03;;;;;;;8.15;91.85;99792.19;6322045;28;20416;-74
2023/03/22 02:23:21;;;;;;;9.85;4.65;;;;;;;8.13;92.06;99794.03;6321995;28;20033;-74
2023/03/22 02:26:42;;;;;;;6.25;4.13;;;;;;;8.12;92.15;99794.97;6321698;28;20117;-70
2023/03/22 02:30:05;;;;;;;8.77;3.70;;;;;;;8.11;92.33;99793.28;6319777;28;20040;-71
2023/03/22 02:33:18;;;;;;;6.32;3.78;;;;;;;7.90;94.11;99791.88;6321778;28;20066;-70
2023/03/22 02:36:31;;;;;;;9.43;4.38;;;;;;;7.80;94.76;99799.31;6324902;28;20122;-70
2023/03/22 02:39:52;;;;;;;6.75;3.88;;;;;;;7.76;93.55;99800.38;6326416;28;20054;-69
2023/03/22 02:43:01;;;;;;;9.00;3.92;;;;;;;7.71;93.86;99803.25;6325458;28;20120;-74
2023/03/22 02:46:13;;;;;;;5.93;3.90;;;;;;;7.78;93.80;99799.41;6325101;28;20143;-74
2023/03/22 02:49:20;;;;;;;8.27;3.83;;;;;;;7.76;94.47;99810.78;6326677;28;20040;-74
2023/03/22 02:52:49;;;;;;;8.88;4.25;;;;;;;7.64;94.82;99807.09;6325150;28;20514;-74
2023/03/22 02:55:57;;;;;;;6.50;3.72;;;;;;;7.61;94.42;99797.69;6322153;28;20079;-70
2023/03/22 02:59:02;;;;;;;6.68;3.65;;;;;;;7.55;95.71;99800.59;6325467;28;20415;-70
2023/03/22 03:02:08;;;;;;;7.90;4.20;;;;;;;7.58;95.48;99808.25;6325186;28;20040;-74
2023/03/22 03:05:10;;;;;;;8.10;4.10;;;;;;;7.57;95.74;99809.16;6324639;28;20530;-72
2023/03/22 03:08:14;;;;;;;7.13;4.13;;;;;;;7.39;97.34;99815.28;6325527;28;20047;-74
2023/03/22 03:11:18;;;;;;;7.72;4.25;;;;;;;7.43;96.82;99814.22;6326181;28;20048;-70
2023/03/22 03:14:20;;;;;;;10.05;4.10;;;;;;;7.30;97.51;99819.22;6325212;28;20048;-70
2023/03/22 03:17:48;;;;;;;9.68;4.50;;;;;;;7.34;98.23;99814.72;6325686;28;20044;-74
2023/03/22 03:20:59;;;;;;;9.65;4.15;;;;;;;7.30;98.22;99814.03;6325082;28;20040;-70
2023/03/22 03:24:24;;;;;;;9.25;4.57;;;;;;;7.32;97.70;99817.38;6324049;28;20502;-70
2023/03/22 03:27:38;;;;;;;8.60;3.85;;;;;;;7.28;97.42;99807.25;6323680;28;20043;-69
2023/03/22 03:30:52;;;;;;;7.32;3.58;;;;;;;7.37;97.26;99807.63;6324908;28;20101;-70
2023/03/22 03:33:58;;;;;;;7.38;4.25;;;;;;;7.33;97.11;99813.00;6323585;28;20044;-70
2023/03/22 03:37:08;;;;;;;8.00;4.05;;;;;;;7.16;98.88;99819.06;6324572;28;20124;-70
2023/03/22 03:40:22;;;;;;;11.73;4.45;;;;;;;7.19;98.03;99814.56;6323303;28;20040;-71
2023/03/22 03:43:26;;;;;;;9.05;4.05;;;;;;;7.15;98.26;99826.03;6324386;28;20488;-70
2023/03/22 03:46:28;;;;;;;6.75;3.92;;;;;;;7.26;97.54;99821.13;6321899;28;20491;-71
2023/03/22 03:49:29;;;;;;;9.32;4.47;;;;;;;7.22;98.10;99826.56;6323071;28;20040;-73
2023/03/22 03:52:32;;;;;;;7.03;4.07;;;;;;;7.21;99.09;99825.72;6324047;28;20040;-74
2023/03/22 03:55:33;;;;;;;9.18;4.47;;;;;;;7.21;98.56;99822.28;6324513;28;20438;-70
2023/03/22 03:58:34;;;;;;;7.93;4.38;;;;;;;7.21;98.46;99824.88;6323242;28;20047;-71
2023/03/22 04:01:35;;;;;;;8.48;4.20;;;;;;;7.25;98.58;99829.84;6324110;28;20051;-70
2023/03/22 04:04:35;;;;;;;6.05;3.60;;;;;;;7.35;98.07;99834.53;6322865;28;20040;-70
2023/03/22 04:07:37;;;;;;;11.80;4.07;;;;;;;7.33;98.30;99831.19;6324210;28;20047;-74
2023/03/22 04:10:38;;;;;;;7.20;4.38;;;;;;;7.30;97.82;99834.78;6324568;28;20098;-74
2023/03/22 04:13:38;;;;;;;10.48;4.38;;;;;;;7.30;97.79;99836.53;6324150;28;20040;-70
2023/03/22 04:16:39;;;;;;;7.07;3.95;;;;;;;7.27;97.72;99832.34;6322706;28;20130;-70
2023/03/22 04:19:41;;;;;;;8.23;5.07;;;;;;;7.33;97.18;99839.84;6324002;28;20119;-70
2023/03/22 04:22:43;;;;;;;11.45;4.88;;;;;;;7.33;96.68;99842.44;6323008;28;20040;-74
2023/03/22 04:25:49;;;;;;;8.52;4.18;;;;;;;7.29;96.13;99842.63;6324103;28;20048;-70
2023/03/22 04:28:50;;;;;;;9.23;4.38;;;;;;;7.24;97.64;99848.91;6323947;28;20040;-74
2023/03/22 04:31:51;;;;;;;10.52;5.03;;;;;;;7.31;96.88;99846.00;6323755;28;20104;-70
2023/03/22 04:34:55;;;;;;;15.48;5.13;;;;;;;7.18;97.80;99851.81;6323330;28;20054;-69
2023/03/22 04:37:56;;;;;;;9.40;4.53;;;;;;;7.21;97.79;99851.66;6323199;28;20131;-70
2023/03/22 04:40:57;;;;;;;7.88;4.68;;;;;;;7.20;97.49;99849.97;6323217;28;20476;-70
2023/03/22 04:44:01;;;;;;;9.68;5.47;;;;;;;7.24;97.26;99850.66;6323396;28;20040;-71
2023/03/22 04:47:05;;;;;;;13.10;5.30;;;;;;;7.27;98.05;99858.31;6321689;28;20519;-70
2023/03/22 04:50:07;;;;;;;8.52;5.05;;;;;;;7.27;97.73;99863.50;6321730;28;20040;-70
2023/03/22 04:53:08;;;;;;;10.43;5.22;;;;;;;7.29;98.03;99850.44;6323040;28;20061;-70
2023/03/22 04:56:11;;;;;;;9.27;5.13;;;;;;;7.39;97.79;99854.22;6322305;28;20514;-70
2023/03/22 04:59:12;;;;;;;9.82;5.28;;;;;;;7.46;97.41;99864.22;6321936;28;20044;-74
2023/03/22 05:02:14;;;;;;;10.65;5.32;;;;;;;7.50;96.61;99857.13;6322688;28;20048;-74
2023/03/22 05:05:15;;;;;;;10.77;5.05;;;;;;;7.62;96.82;99866.88;6323462;28;20040;-74
2023/03/22 05:08:15;;;;;;;11.65;5.45;;;;;;;7.66;96.38;99880.56;6322152;28;20105;-74
2023/03/22 05:11:19;;;;;;;12.13;5.78;;;;;;;7.74;95.65;99872.34;6322168;28;20040;-74
2023/03/22 05:14:20;;;;;;;12.45;6.15;;;;;;;7.82;95.11;99872.78;6322920;28;20081;-70
2023/03/22 05:17:23;;;;;;;7.82;4.25;;;;;;;7.82;94.65;99875.38;6322373;28;20385;-70
2023/03/22 05:20:24;;;;;;;9.20;5.30;;;;;;;7.91;95.15;99869.72;6321748;28;20036;-74
2023/03/22 05:23:25;;;;;;;11.68;5.32;;;;;;;7.86;94.53;99869.13;6321994;28;20062;-74
2023/03/22 05:26:25;;;;;;;10.38;5.13;;;;;;;7.95;94.17;99873.84;6321794;28;20100;-74
2023/03/22 05:29:27;;;;;;;20.73;8.32;;;;;;;7.87;93.91;99868.22;6322389;28;20115;-74
2023/03/22 05:32:28;;;;;;;20.38;9.63;;;;;;;8.10;94.41;99868.75;6321346;28;20097;-70
2023/03/22 05:35:30;;;;;;;10.93;6.60;;;;;;;8.10;92.57;99869.56;6321920;28;20123;-70
2023/03/22 05:38:33;;;;;;;11.57;5.00;;;;;;;8.15;93.06;99869.31;6322346;28;20052;-69
2023/03/22 05:41:34;;;;;;;10.73;5.25;;;;;;;8.20;91.84;99885.53;6320505;28;20063;-70
2023/03/22 05:44:35;;;;;;;10.63;5.70;;;;;;;8.29;90.34;99887.63;6320710;28;20480;-70
2023/03/22 05:47:38;;;;;;;14.35;7.15;;;;;;;8.28;91.04;99891.97;6321447;28;20055;-70
2023/03/22 05:50:41;;;;;;;12.38;6.55;;;;;;;8.32;90.26;99887.47;6321955;28;20046;-70
2023/03/22 05:53:46;;;;;;;11.18;5.25;;;;;;;8.28;90.90;99893.75;6320691;28;20044;-70
2023/03/22 05:56:47;;;;;;;9.73;5.95;;;;;;;8.28;89.39;99902.38;6320224;28;20047;-70
2023/03/22 05:59:48;;;;;;;10.88;6.00;;;;;;;8.27;89.74;99905.06;6321549;28;20047;-70
2023/03/22 06:02:51;;;;;;;10.82;5.72;;;;;;;8.25;89.98;99907.72;6321480;28;20036;-70
2023/03/22 06:05:53;;;;;;;12.65;5.85;;;;;;;8.29;90.07;99911.00;6322041;28;20041;-74
2023/03/22 06:08:54;;;;;;;;;;;;;;;8.29;89.75;99913.59;6320896;28;20103;-70
2023/03/22 06:11:55;;;;;;;18.60;9.70;;;;;;;8.37;89.34;99908.84;6321236;28;19920;-70
2023/03/22 06:14:56;;;;;;;11.63;7.25;;;;;;;8.45;89.29;99911.88;6321248;28;20063;-70
2023/03/22 06:17:57;;;;;;;10.95;6.47;;;;;;;8.42;89.69;99911.22;6321232;28;20112;-70
2023/03/22 06:20:58;;;;;;;13.80;7.00;;;;;;;8.56;87.65;99913.06;6321588;28;20055;-74
2023/03/22 06:24:01;;;;;;;16.30;6.35;;;;;;;8.77;86.11;99913.63;6320949;28;20040;-74
2023/03/22 06:27:02;;;;;;;13.77;5.82;;;;;;;9.00;84.71;99920.19;6320883;28;20047;-74
2023/03/22 06:30:03;;;;;;;12.18;5.90;;;;;;;9.25;83.32;99911.78;6320500;28;20048;-70
2023/03/22 06:33:05;;;;;;;12.48;6.50;;;;;;;9.38;81.15;99917.13;6319861;28;20048;-70
2023/03/22 06:36:08;;;;;;;10.35;5.95;;;;;;;9.61;81.61;99914.00;6321012;28;20036;-70
2023/03/22 06:39:09;;;;;;;10.95;5.30;;;;;;;9.66;79.32;99914.56;6320754;28;20055;-74
2023/03/22 06:42:10;;;;;;;11.00;5.30;;;;;;;9.93;78.66;99908.63;6320414;28;20068;-70
2023/03/22 06:45:15;;;;;;;7.03;4.35;;;;;;;10.08;77.09;99914.69;6320104;28;20048;-74
2023/03/22 06:48:15;;;;;;;9.38;5.22;;;;;;;10.18;75.67;99913.19;6321447;28;20727;-74
2023/03/22 06:51:18;;;;;;;7.65;4.63;;;;;;;10.12;74.05;99921.38;6321679;28;20044;-74
2023/03/22 06:54:20;;;;;;;9.60;4.30;;;;;;;10.25;74.51;99919.72;6321513;28;20063;-74
2023/03/22 06:57:21;;;;;;;10.25;5.07;;;;;;;10.52;74.72;99912.88;6321584;28;20484;-74
2023/03/22 07:00:22;;;;;;;8.55;4.53;;;;;;;10.58;72.69;99918.53;6321306;28;20044;-75
2023/03/22 07:03:23;;;;;;;10.02;5.03;;;;;;;10.68;71.72;99921.41;6320315;28;20251;-74
2023/03/22 07:06:24;;;;;;;10.80;5.35;;;;;;;10.72;74.75;99922.91;6320045;28;20055;-70
2023/03/22 07:09:26;;;;;;;11.88;5.53;;;;;;;11.10;74.24;99922.22;6320641;28;20101;-71
2023/03/22 07:12:26;;;;;;;7.87;5.07;;;;;;;11.29;72.12;99920.06;6320586;28;20039;-71
2023/03/22 07:15:29;;;;;;;12.48;5.50;;;;;;;11.10;69.27;99930.06;6321077;28;20044;-75
2023/03/22 07:18:32;;;;;;;11.63;5.50;;;;;;;11.30;70.06;99941.78;6321387;28;20040;-75
2023/03/22 07:21:33;;;;;;;9.77;5.38;;;;;;;11.51;68.85;99944.78;6324277;28;20404;-71
2023/03/22 07:24:34;;;;;;;9.32;5.18;;;;;;;11.77;69.61;99945.63;6323820;28;20047;-72
2023/03/22 07:27:36;;;;;;;11.53;4.97;;;;;;;11.93;67.13;99953.28;6324879;28;20048;-71
2023/03/22 07:30:38;;;;;;;12.05;4.63;;;;;;;12.03;65.17;99950.91;6323547;28;20483;-71
2023/03/22 07:33:39;;;;;;;6.75;3.78;;;;;;;12.18;65.69;99955.06;6324037;28;20044;-75
2023/03/22 07:36:40;;;;;;;9.47;4.57;;;;;;;12.24;63.96;99948.56;6325153;28;20036;-71
2023/03/22 07:39:42;;;;;;;7.63;4.25;;;;;;;12.62;65.18;99952.88;6325065;28;20779;-75
2023/03/22 07:42:42;;;;;;;7.70;4.25;;;;;;;12.71;62.16;99952.25;6323569;28;20040;-70
2023/03/22 07:45:43;;;;;;;11.63;4.60;;;;;;;12.90;61.18;99951.75;6322953;28;20511;-70
2023/03/22 07:48:44;;;;;;;8.57;4.63;;;;;;;13.01;60.25;99954.44;6323723;28;20072;-75
2023/03/22 07:51:45;;;;;;;5.97;3.88;;;;;;;13.12;60.25;99947.56;6323265;28;20127;-71
2023/03/22 07:54:45;;;;;;;6.78;3.80;;;;;;;13.13;59.78;99949.22;6324182;28;20042;-71
2023/03/22 07:57:46;;;;;;;8.13;3.92;;;;;;;13.50;60.94;99942.13;6324185;28;20044;-70
2023/03/22 08:00:49;;;;;;;10.23;4.43;;;;;;;13.67;57.68;99951.34;6322883;28;20044;-70
2023/03/22 08:03:50;;;;;;;7.60;3.90;;;;;;;13.94;56.75;99955.44;6322744;28;20115;-70
2023/03/22 08:06:53;;;;;;;7.63;3.60;;;;;;;13.97;58.22;99953.41;6324283;28;20050;-71
2023/03/22 08:09:54;;;;;;;6.40;4.10;;;;;;;13.85;55.39;99956.97;6324369;28;20045;-75
2023/03/22 08:12:57;;;;;;;5.70;3.30;;;;;;;14.08;56.69;99958.69;6323476;28;20059;-75
2023/03/22 08:15:58;;;;;;;8.55;3.70;;;;;;;14.28;56.72;99957.13;6323119;28;20036;-71
2023/03/22 08:18:59;;;;;;;6.67;3.60;;;;;;;14.08;54.18;99958.69;6324095;28;20126;-71
2023/03/22 08:22:00;;;;;;;9.20;4.68;;;;;;;14.25;54.24;99965.25;6322077;28;20036;-71
2023/03/22 08:25:05;;;;;;;7.28;4.40;;;;;;;14.57;56.25;99955.84;6323604;28;20032;-75
2023/03/22 08:28:05;;;;;;;5.45;3.28;;;;;;;14.90;54.50;99954.91;6324087;28;20051;-75
2023/03/22 08:31:12;;;;;;;9.20;4.28;;;;;;;15.21;53.69;99963.78;6312464;28;20044;-70
2023/03/22 08:34:13;;;;;;;5.72;3.53;;;;;;;15.39;51.81;99956.19;6295736;28;20055;-70
2023/03/22 08:37:14;;;;;;;7.32;3.78;;;;;;;15.57;50.75;99953.81;6296959;28;20052;-70
2023/03/22 08:40:17;;;;;;;5.38;3.67;;;;;;;15.87;50.93;99963.56;6297364;28;20037;-75
2023/03/22 08:43:18;;;;;;;7.28;3.67;;;;;;;15.65;50.84;99961.06;6297021;28;20047;-75
2023/03/22 08:46:19;;;;;;;5.45;2.90;;;;;;;15.77;49.75;99954.78;6330758;28;20052;-75
2023/03/22 08:49:21;;;;;;;6.30;3.15;;;;;;;15.62;49.72;99951.63;6296583;28;20032;-70
2023/03/22 08:52:21;;;;;;;4.95;3.00;;;;;;;15.71;48.49;99950.88;6297164;28;20041;-76
2023/03/22 08:55:23;;;;;;;3.33;2.25;;;;;;;15.79;46.66;99952.03;6296569;28;20507;-76
2023/03/22 08:58:24;;;;;;;4.50;2.65;;;;;;;16.05;47.37;99950.66;6296965;28;20052;-75
2023/03/22 09:01:25;;;;;;;4.53;2.50;;;;;;;16.37;47.53;99957.59;6297364;28;20507;-71
2023/03/22 09:04:26;;;;;;;7.53;2.90;;;;;;;16.75;45.55;99952.56;6297556;28;20488;-70
2023/03/22 09:07:27;;;;;;;6.50;3.22;;;;;;;16.91;45.72;99956.34;6297619;28;20301;-75
2023/03/22 09:10:28;;;;;;;6.88;2.78;;;;;;;16.95;44.58;99951.66;6296678;28;20041;-75
2023/03/22 09:13:32;;;;;;;4.40;2.80;;;;;;;16.91;45.28;99948.44;6297467;28;20041;-75
2023/03/22 09:16:33;;;;;;;6.07;3.03;;;;;;;16.84;44.06;99952.63;6296339;28;20277;-75
2023/03/22 09:19:34;;;;;;;4.83;3.07;;;;;;;17.12;44.63;99956.22;6296355;28;20509;-76
2023/03/22 09:22:35;;;;;;;3.88;2.80;;;;;;;17.30;45.34;99950.28;6297155;28;20131;-71
2023/03/22 09:25:36;;;;;;;4.88;2.72;;;;;;;17.32;42.74;99951.81;6296056;28;20044;-76
2023/03/22 09:28:36;;;;;;;5.43;3.33;;;;;;;17.86;43.66;99946.88;6296806;28;20045;-70
2023/03/22 09:31:38;;;;;;;6.27;3.00;;;;;;;17.55;42.93;99945.41;6296062;28;20047;-76
2023/03/22 09:34:40;;;;;;;4.15;2.70;;;;;;;17.98;43.45;99944.91;6279636;28;20040;-76
2023/03/22 09:37:41;;;;;;;5.05;3.15;;;;;;;18.16;41.46;99945.00;6296964;28;20110;-76
2023/03/22 09:40:52;;;;;;;6.13;3.07;;;;;;;18.14;41.56;99946.94;6329578;28;20550;-76
2023/03/22 09:44:01;;;;;;;5.88;3.17;;;;;;;17.95;41.86;99944.34;6296571;28;20289;-76
2023/03/22 09:47:07;;;;;;;3.97;2.40;;;;;;;18.04;39.99;99949.63;6295170;28;20530;-71
2023/03/22 09:50:24;;;;;;;2.85;2.05;;;;;;;18.35;39.36;99944.06;6296552;28;20040;-72
2023/03/22 09:53:26;;;;;;;4.47;2.35;;;;;;;18.20;38.66;99942.88;6295334;28;20051;-72
2023/03/22 09:56:29;;;;;;;;;;;;;;;17.98;39.23;99946.72;6329451;28;20072;-72
2023/03/22 09:59:43;;;;;;;2.47;1.80;;;;;;;18.42;38.48;99945.13;6296321;28;19920;-72
2023/03/22 10:02:47;;;;;;;3.63;2.08;;;;;;;18.69;38.99;99940.81;6295288;28;20119;-76
2023/03/22 10:06:03;;;;;;;4.93;2.42;;;;;;;18.65;39.44;99940.28;6295371;28;20047;-76
2023/03/22 10:09:33;;;;;;;5.97;3.03;;;;;;;18.08;41.72;99942.25;6295140;28;20348;-71
2023/03/22 10:12:49;;;;;;;3.33;2.20;;;;;;;18.01;41.09;99947.25;6294868;28;20674;-72
2023/03/22 10:16:01;;;;;;;3.65;2.50;;;;;;;17.92;40.18;99938.41;6328794;28;20472;-72
2023/03/22 10:19:28;;;;;;;;;;;;;;;18.02;40.97;99941.00;6297060;28;20122;-71
2023/03/22 10:22:34;;;;;;;4.03;1.98;;;;;;;18.60;39.58;99942.53;6295657;28;19920;-76
2023/03/22 10:25:38;;;;;;;3.83;1.63;;;;;;;18.85;39.70;99940.19;6296151;28;20306;-76
2023/03/22 10:28:43;;;;;;;2.50;1.88;;;;;;;19.22;39.49;99936.56;6295851;28;20489;-76
2023/03/22 10:31:44;;;;;;;3.83;2.15;;;;;;;18.72;37.83;99929.97;6295934;28;20048;-76
2023/03/22 10:34:46;;;;;;;2.10;1.20;;;;;;;19.21;37.42;99937.53;6295859;28;20037;-76
2023/03/22 10:37:48;;;;;;;2.00;1.67;;;;;;;17.86;38.86;99932.88;6294638;28;20134;-76
2023/03/22 10:40:52;;;;;;;1.83;1.55;;;;;;;17.65;39.34;99927.75;6295807;28;20045;-76
2023/03/22 10:43:59;;;;;;;2.33;1.58;;;;;;;17.16;38.88;99916.44;6295965;28;20090;-71
2023/03/22 10:47:06;;;;;;;2.40;1.80;;;;;;;18.26;39.44;99927.31;6295515;28;20467;-71
2023/03/22 10:50:14;;;;;;;2.05;1.50;;;;;;;19.21;37.62;99935.75;6295605;28;20049;-72
2023/03/22 10:53:31;;;;;;;2.60;1.95;;;;;;;19.34;37.52;99922.13;6295988;28;20036;-71
2023/03/22 10:56:32;;;;;;;3.28;1.92;;;;;;;18.25;38.69;99911.59;6299010;28;20481;-76
2023/03/22 10:59:49;;;;;;;2.63;1.90;;;;;;;18.67;37.72;99924.28;6299213;28;20040;-71
2023/03/22 11:02:58;;;;;;;3.53;2.00;;;;;;;19.30;38.52;99915.47;6300279;28;20047;-76
2023/03/22 11:06:00;;;;;;;2.15;1.70;;;;;;;19.55;37.83;99911.19;6300118;28;20036;-72
2023/03/22 11:09:21;;;;;;;2.67;1.92;;;;;;;19.43;36.02;99902.66;6299954;28;20041;-72
2023/03/22 11:12:22;;;;;;;6.15;2.40;;;;;;;19.24;37.59;99901.03;6332711;28;20116;-76
2023/03/22 11:15:29;;;;;;;3.13;2.20;;;;;;;18.55;38.00;99910.44;6332642;28;20069;-76
2023/03/22 11:18:32;;;;;;;2.92;2.20;;;;;;;18.02;38.65;99901.41;6332816;28;20326;-76
2023/03/22 11:21:33;;;;;;;3.83;2.35;;;;;;;17.45;38.99;99897.94;6299963;28;20041;-76
2023/03/22 11:24:34;;;;;;;3.97;2.37;;;;;;;17.14;40.23;99899.91;6298768;28;20040;-76
2023/03/22 11:27:35;;;;;;;1.48;1.38;;;;;;;17.53;39.36;99890.16;6299370;28;20098;-76
2023/03/22 11:30:36;;;;;;;2.22;1.60;;;;;;;18.30;37.38;99889.06;6307770;28;20047;-76
2023/03/22 11:33:53;;;;;;;4.05;2.00;;;;;;;18.97;36.23;99894.06;6295504;28;20048;-76
2023/03/22 11:36:57;;;;;;;3.25;1.65;;;;;;;19.38;36.52;99886.44;6298548;28;20518;-76
2023/03/22 11:40:00;;;;;;;2.53;1.67;;;;;;;19.96;36.61;99882.34;6298384;28;20045;-72
2023/03/22 11:43:20;;;;;;;4.07;1.98;;;;;;;19.97;35.14;99870.75;6299371;28;20122;-72
2023/03/22 11:46:24;;;;;;;2.13;1.60;;;;;;;18.84;35.50;99883.88;6298170;28;20060;-76
2023/03/22 11:49:41;;;;;;;3.88;2.10;;;;;;;17.62;37.27;99865.53;6298196;28;20072;-71
2023/03/22 11:52:46;;;;;;;2.50;1.50;;;;;;;17.35;38.07;99871.56;6298054;28;20046;-72
2023/03/22 11:55:52;;;;;;;1.83;1.60;;;;;;;17.55;39.26;99872.38;6299335;28;20075;-70
2023/03/22 11:59:03;;;;;;;3.80;2.28;;;;;;;16.95;40.38;99872.59;6331473;28;20040;-71
2023/03/22 12:02:26;;;;;;;2.42;1.67;;;;;;;17.24;39.90;99863.81;6297923;28;20090;-71
2023/03/22 12:05:33;;;;;;;3.60;2.08;;;;;;;17.31;38.40;99872.81;6298844;28;20052;-71
2023/03/22 12:08:55;;;;;;;1.75;1.65;;;;;;;17.83;39.16;99867.16;6297729;28;20412;-70
2023/03/22 12:11:57;;;;;;;;;;;;;;;17.61;39.59;99863.06;6297816;28;20040;-71
2023/03/22 12:15:04;;;;;;;2.40;1.75;;;;;;;18.08;39.89;99869.16;6297532;28;20413;-71
2023/03/22 12:18:16;;;;;;;2.85;1.80;;;;;;;17.86;39.30;99861.59;6298828;28;20503;-71
2023/03/22 12:21:17;;;;;;;2.97;1.88;;;;;;;17.85;39.90;99862.56;6297533;28;20036;-71
2023/03/22 12:24:30;;;;;;;2.28;1.50;;;;;;;17.83;40.12;99861.88;6330927;28;20485;-70
2023/03/22 12:27:41;;;;;;;3.35;1.95;;;;;;;17.75;39.05;99867.00;6297082;28;20374;-76
2023/03/22 12:30:47;;;;;;;2.07;1.47;;;;;;;18.66;38.13;99856.56;6298607;28;20041;-76
2023/03/22 12:33:53;;;;;;;2.58;1.63;;;;;;;18.48;37.60;99853.91;6298454;28;20043;-76
2023/03/22 12:36:55;;;;;;;2.17;1.60;;;;;;;19.19;37.32;99846.94;6298282;28;20043;-76
2023/03/22 12:40:06;;;;;;;2.45;1.58;;;;;;;18.82;37.76;99842.69;6297282;28;20045;-77
2023/03/22 12:43:47;;;;;;;2.38;1.70;;;;;;;19.57;36.65;99840.41;6297802;28;20064;-76
2023/03/22 12:46:48;;;;;;;2.33;1.40;;;;;;;20.28;37.96;99835.75;6297606;28;20566;-72
2023/03/22 12:50:01;;;;;;;1.70;1.30;;;;;;;20.42;35.60;99834.31;6296846;28;20040;-71
2023/03/22 12:53:03;;;;;;;4.47;1.50;;;;;;;20.13;35.04;99831.09;6297707;28;20040;-71
2023/03/22 12:56:04;;;;;;;2.53;1.63;;;;;;;20.10;35.71;99834.06;6297644;28;20057;-73
2023/03/22 12:59:16;;;;;;;2.60;1.80;;;;;;;20.00;34.77;99836.03;6297712;28;20055;-71
2023/03/22 13:02:28;;;;;;;3.33;1.53;;;;;;;19.90;34.32;99838.78;6298023;28;20044;-76
2023/03/22 13:05:32;;;;;;;3.38;1.50;;;;;;;19.93;35.09;99835.84;6297572;28;20041;-71
2023/03/22 13:09:01;;;;;;;4.15;1.45;;;;;;;19.12;35.28;99826.41;6297693;28;20496;-76
2023/03/22 13:12:15;;;;;;;1.63;1.30;;;;;;;19.94;35.93;99828.72;6296326;28;20377;-76
2023/03/22 13:15:34;;;;;;;1.88;1.38;;;;;;;19.92;34.98;99822.75;6296151;28;20456;-71
2023/03/22 13:18:35;;;;;;;1.75;1.45;;;;;;;19.52;34.60;99824.19;6295590;28;20052;-71
2023/03/22 13:21:39;;;;;;;1.53;1.13;;;;;;;19.76;35.57;99823.50;6296131;28;20037;-76
2023/03/22 13:25:05;;;;;;;1.65;1.40;;;;;;;19.82;34.49;99822.03;6295969;28;20075;-76
2023/03/22 13:28:28;;;;;;;2.53;1.30;;;;;;;19.86;34.92;99818.09;6295959;28;20152;-76
2023/03/22 13:31:40;;;;;;;1.85;1.48;;;;;;;19.96;34.95;99816.16;6297084;28;20040;-76
2023/03/22 13:34:49;;;;;;;1.95;1.35;;;;;;;19.20;34.61;99823.00;6296796;28;20036;-71
2023/03/22 13:37:53;;;;;;;2.22;1.48;;;;;;;19.25;34.93;99826.03;6296863;28;20051;-76
2023/03/22 13:41:12;;;;;;;1.95;1.40;;;;;;;19.32;34.66;99826.22;6329451;28;20404;-76
2023/03/22 13:44:29;;;;;;;2.38;1.35;;;;;;;18.98;34.55;99821.66;6295453;28;20044;-71
2023/03/22 13:47:32;;;;;;;1.45;1.35;;;;;;;19.61;35.42;99819.78;6296608;28;20052;-71
2023/03/22 13:50:34;;;;;;;1.85;1.60;;;;;;;19.65;35.18;99824.59;6295446;28;20094;-72
2023/03/22 13:53:36;;;;;;;1.63;1.33;;;;;;;19.49;33.92;99811.25;6296498;28;20512;-71
2023/03/22 13:56:43;;;;;;;1.88;1.13;;;;;;;18.90;33.47;99814.53;6329217;28;20041;-71
2023/03/22 14:00:00;;;;;;;1.83;1.38;;;;;;;18.72;35.38;99818.97;6294014;28;20044;-71
2023/03/22 14:03:15;;;;;;;1.10;1.00;;;;;;;18.82;35.21;99809.19;6295939;28;20514;-71
2023/03/22 14:06:24;;;;;;;1.13;0.98;;;;;;;19.08;35.01;99811.84;6295044;28;20408;-76
2023/03/22 14:09:31;;;;;;;0.98;0.88;;;;;;;19.13;34.74;99825.44;6295114;28;20075;-76
2023/03/22 14:12:49;;;;;;;2.00;1.00;;;;;;;18.85;34.75;99814.13;6296432;28;20041;-76
2023/03/22 14:15:53;;;;;;;2.25;1.08;;;;;;;19.26;35.63;99821.56;6296321;28;20043;-76
2023/03/22 14:18:55;;;;;;;4.53;1.50;;;;;;;18.93;34.63;99827.41;6295183;28;20093;-76
2023/03/22 14:22:01;;;;;;;1.77;1.20;;;;;;;18.47;34.88;99831.09;6296396;28;20036;-71
2023/03/22 14:25:03;;;;;;;1.67;1.13;;;;;;;18.83;35.51;99829.31;6294760;28;20041;-71
2023/03/22 14:28:05;;;;;;;1.10;1.00;;;;;;;18.86;36.42;99821.09;6296280;28;20512;-71
2023/03/22 14:31:13;;;;;;;2.08;1.10;;;;;;;18.74;35.71;99824.94;6300102;28;20076;-71
2023/03/22 14:34:17;;;;;;;1.20;1.10;;;;;;;18.84;35.40;99817.78;6300123;28;20451;-71
2023/03/22 14:37:18;;;;;;;3.17;1.42;;;;;;;18.63;36.38;99819.84;6299773;28;20044;-72